• Join FlightAware (Why Join?)
  • Login
  • US Flag 
05:27AM EDT


 

Airport Tracker/Info


-or-


 

Live Flight TrackerFlight Track Log ✈ VP-BLX ✈ 13-Apr-2014 ✈ MUHA / HAV - UUEE / SVO

Flight Track Log - Related Links

Times and Time Zones

All times are in EDT time to prevent confusion due to time zone crossing. See the VP-BLX flight status page for this flight to view local times or setup timezone preferences in your user account.

Time Position Orientation Groundspeed Altitude Reporting Facility
EDT Latitude Longitude Course Direction KTS MPH feet Rate Location/Type
09:23PM 23.2781 -82.0503 54° Northeast 450 518 11,400  Level Miami Center
09:24PM 23.3500 -81.9628 48° Northeast 399 459 13,300 1,920 Climbing Miami Center
09:25PM 25.7298 -80.1680 39° Northeast  Level FlightAware Approximate
09:25PM 23.4261 -81.8731 47° Northeast 393 452 15,300  Level Miami Center
09:26PM 25.8132 -80.0520 54° Northeast  Level FlightAware Approximate
09:26PM 23.5042 -81.7903 44° Northeast 393 452 17,300  Level Miami Center
09:27PM 25.8915 -79.9305 54° Northeast  Level FlightAware Approximate
09:27PM 23.5844 -81.6936 48° Northeast 406 467 18,800  Level Miami Center
09:28PM 23.6689 -81.5994 46° Northeast 420 483 20,400 1,740 Climbing Miami Center
09:29PM 23.7533 -81.5003 47° Northeast 432 497 22,300 1,500 Climbing Miami Center
09:30PM 23.8486 -81.3903 47° Northeast 438 504 23,500 840 Climbing Miami Center
09:31PM 23.9392 -81.2958 44° Northeast 443 510 24,000 360 Climbing Miami Center
09:32PM 24.0478 -81.2269 30° Northeast 443 510 24,300 780 Climbing Miami Center
09:33PM 24.1583 -81.1581 30° Northeast 443 510 25,600 1,200 Climbing Miami Center
09:34PM 24.2711 -81.0889 29° Northeast 454 522 26,800 1,200 Climbing Miami Center
09:35PM 24.3839 -81.0175 30° Northeast 454 522 28,000 1,140 Climbing Miami Center
09:36PM 24.4983 -80.9506 28° Northeast 459 528 29,100 1,200 Climbing Miami Center
09:37PM 24.6133 -80.8767 30° Northeast 465 535 30,400 1,200 Climbing Miami Center
09:38PM 24.7258 -80.8050 30° Northeast 465 535 31,600 1,080 Climbing Miami Center
09:39PM 24.8383 -80.7331 30° Northeast 465 535 32,600 1,080 Climbing Miami Center
09:40PM 24.9511 -80.6631 29° Northeast 465 535 33,800 1,140 Climbing Miami Center
09:41PM 25.0633 -80.5978 28° Northeast 465 535 34,900 600 Climbing Miami Center
09:42PM 25.1697 -80.5253 32° Northeast 460 529 35,000  Climbing Miami Center
09:43PM 25.2694 -80.4617 30° Northeast 455 524 35,000  Level Miami Center
09:44PM 25.3797 -80.3914 30° Northeast 450 518 35,000  Level Miami Center
09:45PM 25.4900 -80.3186 31° Northeast 450 518 35,000  Level Miami Center
09:46PM 25.6003 -80.2481 30° Northeast 450 518 35,000  Level Miami Center
09:47PM 25.7086 -80.1728 32° Northeast 450 518 35,000  Level Miami Center
09:48PM 25.8028 -80.0739 43° Northeast 455 524 35,000  Level Miami Center
09:49PM 25.8825 -79.9558 53° Northeast 460 529 35,000  Level Miami Center
09:50PM 25.9603 -79.8378 54° Northeast 465 535 35,000  Level Miami Center
09:51PM 26.0397 -79.7194 53° Northeast 471 542 35,000  Level Miami Center
09:52PM 26.1111 -79.5986 57° Northeast 471 542 35,000  Level Miami Center
09:53PM 26.1825 -79.4544 61° Northeast 471 542 35,000  Level Miami Center
09:54PM 26.2411 -79.3353 61° Northeast 476 548 35,000  Level Miami Center
10:00PM 26.8842 -78.9966 19° North 442 509 35,000  Level FlightAware ADS-B (KMCO)
10:03PM 27.2467 -78.8572 19° North 447 514 35,000  Level FlightAware ADS-B (KMCO)
10:03PM 27.3071 -78.8338 19° North 447 514 35,000  Level FlightAware ADS-B (KMCO)
10:04PM 27.3798 -78.8062 17° North 445 512 35,000  Level FlightAware ADS-B (KMCO)
10:05PM 27.4542 -78.7870 North 440 506 35,000  Level FlightAware ADS-B (KMCO)
10:05PM 27.5230 -78.7757 North 440 506 35,000  Level FlightAware ADS-B (KMCO)
10:09PM 27.9518 -78.7007 North 444 511 35,000  Level FlightAware ADS-B (KMCO)
10:09PM 28.0018 -78.6918 North 444 511 35,000  Level FlightAware ADS-B (KMCO)
10:10PM 28.1726 -78.6617 North 443 510 35,000  Level FlightAware ADS-B (KMCO)
10:11PM 28.2308 -78.6569 North 440 506 35,000  Level Miami Center
10:12PM 28.3544 -78.6331 10° North 445 512 35,000  Level Miami Center
10:13PM 28.4778 -78.6136 North 445 512 35,000  Level Miami Center
10:14PM 28.5950 -78.5919 North 445 512 35,000  Level Miami Center
10:15PM 28.7183 -78.5725 North 437 503 35,000  Level Miami Center
10:16PM 28.8375 -78.5506 North 437 503 35,000  Level Miami Center
10:17PM 28.9608 -78.5311 North 431 496 35,000  Level Miami Center
10:18PM 29.0778 -78.5092 North 430 495 35,000  Level Miami Center
10:19PM 29.1972 -78.4872 North 424 488 35,000  Level Miami Center
10:20PM 29.3142 -78.4675 North 431 496 35,000  Level Miami Center
10:21PM 29.4353 -78.4453 North 423 487 35,000  Level Miami Center
10:22PM 29.5525 -78.4208 10° North 430 495 35,000  Level Miami Center
10:23PM 29.6319 -78.3939 16° North 425 489 35,000  Level Jacksonville Center
10:24PM 29.7442 -78.3792 North 445 512 35,000  Level Jacksonville Center
10:25PM 29.8622 -78.3569 North 439 505 35,000  Level Jacksonville Center
10:26PM 29.9847 -78.3367 North 434 499 35,000  Level Jacksonville Center
10:27PM 30.1006 -78.3072 12° North 426 490 35,000  Level Jacksonville Center
10:28PM 30.2203 -78.2703 15° North 426 490 35,000  Level Jacksonville Center
10:29PM 30.3336 -78.2289 17° North 432 497 35,000  Level Jacksonville Center
10:30PM 30.4553 -78.1914 15° North 432 497 35,000  Level Jacksonville Center
10:31PM 30.5689 -78.1544 16° North 426 490 35,000  Level Jacksonville Center
10:32PM 30.6864 -78.1150 16° North 433 498 35,000  Level Jacksonville Center
10:33PM 30.8017 -78.0753 16° North 433 498 35,000  Level Jacksonville Center
10:34PM 30.9192 -78.0378 15° North 428 493 35,000  Level Jacksonville Center
10:35PM 31.0508 -77.9875 18° North 441 507 35,000  Level Jacksonville Center
10:36PM 31.1664 -77.9497 16° North 429 494 35,000  Level Jacksonville Center
10:37PM 31.2836 -77.9094 16° North 437 503 35,000  Level Jacksonville Center
10:38PM 31.3989 -77.8669 17° North 432 497 35,000  Level Jacksonville Center
10:39PM 31.5142 -77.8289 16° North 428 493 35,000  Level Jacksonville Center
10:40PM 31.6300 -77.8008 12° North 426 490 35,000  Level Jacksonville Center
10:41PM 31.7431 -77.7556 19° North 448 516 35,000  Level Jacksonville Center
10:42PM 31.8603 -77.7147 16° North 432 497 35,000  Level Jacksonville Center
10:43PM 31.9758 -77.6789 15° North 432 497 35,000  Level Jacksonville Center
10:44PM 32.0911 -77.6428 15° North 432 497 35,000  Level Jacksonville Center
10:45PM 32.2064 -77.6019 17° North 427 491 35,000  Level Jacksonville Center
10:46PM 32.3194 -77.5608 17° North 427 491 35,000  Level Jacksonville Center
10:47PM 32.4325 -77.5247 15° North 427 491 35,000  Level Jacksonville Center
10:48PM 32.5458 -77.4861 16° North 427 491 35,000  Level Jacksonville Center
10:49PM 32.6608 -77.4472 16° North 427 491 35,000  Level Jacksonville Center
10:50PM 32.7742 -77.4106 15° North 427 491 35,000  Level Jacksonville Center
10:51PM 32.8858 -77.3728 16° North 425 489 35,000  Level Washington Center
10:52PM 32.9992 -77.3344 16° North 426 490 35,000  Level Washington Center
10:53PM 33.1353 -77.2878 16° North 425 489 35,000  Level Washington Center
10:54PM 33.2481 -77.2481 16° North 425 489 35,000  Level Washington Center
10:55PM 33.3617 -77.2092 16° North 425 489 35,000  Level Washington Center
10:56PM 33.4747 -77.1681 17° North 426 490 35,000  Level Washington Center
10:57PM 33.5872 -77.1281 16° North 425 489 35,000  Level Washington Center
10:58PM 33.7006 -77.0889 16° North 425 489 35,000  Level Washington Center
10:59PM 33.8361 -77.0408 16° North 426 490 35,000  Level Washington Center
11:00PM 33.9483 -77.0003 17° North 426 490 35,000  Level Washington Center
11:01PM 34.0631 -76.9592 17° North 428 493 35,000  Level Washington Center
11:02PM 34.1778 -76.9183 16° North 430 495 35,000  Level Washington Center
11:03PM 34.2942 -76.8772 16° North 431 496 35,000  Level Washington Center
11:04PM 34.4111 -76.8344 17° North 438 504 35,000  Level Washington Center
11:05PM 34.5286 -76.7928 16° North 438 504 35,000  Level Washington Center
11:06PM 34.6700 -76.7414 17° North 440 506 35,000  Level Washington Center
11:07PM 34.7864 -76.6989 17° North 441 507 35,000  Level Washington Center
11:08PM 34.9047 -76.6564 16° North 441 507 35,000  Level Washington Center
11:09PM 35.0239 -76.6139 16° North 444 511 35,000  Level Washington Center
11:10PM 35.1547 -76.5647 17° North 444 511 35,000  Level Washington Center
11:11PM 35.2744 -76.5214 16° North 447 514 35,000  Level Washington Center
11:12PM 35.3747 -76.4839 17° North 448 516 35,000  Level Washington Center
11:13PM 35.5200 -76.4306 17° North 448 516 35,000  Level Washington Center
11:14PM 35.6403 -76.3858 17° North 449 517 35,000  Level Washington Center
11:15PM 35.7606 -76.3428 16° North 449 517 35,000 600 Level Washington Center
11:17PM 35.8769 -76.2828 23° Northeast 454 522 36,300 960 Climbing Washington Center
11:18PM 35.9847 -76.2044 30° Northeast 450 518 37,000 300 Climbing Washington Center
11:19PM 36.0928 -76.1247 31° Northeast 452 520 37,000  Level Washington Center
11:20PM 36.2039 -76.0453 30° Northeast 457 526 37,000  Level Washington Center
11:21PM 36.3117 -75.9636 31° Northeast 459 528 37,000  Level Washington Center
11:22PM 36.4206 -75.8839 30° Northeast 458 527 37,000  Level Washington Center
11:23PM 36.5517 -75.7872 31° Northeast 458 527 37,000  Level Washington Center
11:24PM 36.6622 -75.7058 31° Northeast 464 534 37,000  Level Washington Center
11:25PM 36.7711 -75.6236 31° Northeast 464 534 37,000  Level Washington Center
11:26PM 36.8811 -75.5419 31° Northeast 464 534 37,000  Level Washington Center
11:27PM 36.9908 -75.4606 31° Northeast 464 534 37,000  Level Washington Center
11:28PM 37.1011 -75.3769 31° Northeast 464 534 37,000  Level Washington Center
11:29PM 37.2108 -75.2942 31° Northeast 464 534 37,000  Level Washington Center
11:30PM 37.3222 -75.2097 31° Northeast 464 534 37,000  Level Washington Center
11:31PM 37.4561 -75.1103 31° Northeast 467 537 37,000  Level Washington Center
11:32PM 37.5664 -75.0247 32° Northeast 467 537 37,000  Level Washington Center
11:33PM 37.6769 -74.9403 31° Northeast 467 537 37,000  Level Washington Center
11:34PM 37.7886 -74.8556 31° Northeast 467 537 37,000  Level Washington Center
11:35PM 37.8983 -74.7706 31° Northeast 466 536 37,000  Level Washington Center
11:36PM 38.0097 -74.6864 31° Northeast 466 536 37,000  Level Washington Center
11:37PM 38.1294 -74.5919 32° Northeast 466 536 37,000  Level Washington Center
11:40PM 38.5358 -74.2733 32° Northeast 470 541 37,000  Level FlightAware ADS-B (KWWD)
11:43PM 38.8560 -74.0196 32° Northeast 470 541 37,000  Level FlightAware ADS-B (KPHL)
11:44PM 38.9315 -73.9594 32° Northeast 469 540 37,000  Level FlightAware ADS-B (KPHL)
11:45PM 39.0148 -73.8928 32° Northeast 470 541 37,000  Level FlightAware ADS-B (KPHL)
11:46PM 39.1251 -73.8043 32° Northeast 472 543 37,000  Level FlightAware ADS-B (KPHL)
11:47PM 39.2064 -73.7388 32° Northeast 475 547 37,000  Level FlightAware ADS-B (KPHL)
11:47PM 39.2764 -73.6825 32° Northeast 474 545 37,000  Level Boston Center
11:48PM 39.3414 -73.6297 32° Northeast 470 541 37,000  Level Washington Center
11:49PM 39.4511 -73.5400 32° Northeast 470 541 37,000  Level Washington Center
11:50PM 39.5831 -73.4328 32° Northeast 468 539 37,000  Level Washington Center
11:51PM 39.6886 -73.3456 32° Northeast 468 539 37,000  Level Washington Center
11:52PM 39.7981 -73.2542 33° Northeast 468 539 37,000  Level Washington Center
11:53PM 39.9075 -73.1647 32° Northeast 468 539 37,000  Level Washington Center
11:54PM 40.0153 -73.0744 33° Northeast 465 535 37,000  Level Washington Center
11:55PM 40.1236 -72.9856 32° Northeast 462 532 37,000  Level Washington Center
11:56PM 40.2308 -72.8961 32° Northeast 462 532 37,000  Level Washington Center
11:57PM 40.3392 -72.8075 32° Northeast 461 531 37,000  Level Washington Center
11:58PM 40.4522 -72.7333 27° Northeast 457 526 37,000  Level Washington Center
11:59PM 40.5639 -72.6572 27° Northeast 457 526 37,000  Level Washington Center
12:04AM 41.1559 -72.2428 28° Northeast 443 510 37,000  Level FlightAware ADS-B
12:08AM 41.5430 -71.9682 28° Northeast 435 501 37,000  Level FlightAware ADS-B
12:08AM 41.6074 -71.9222 28° Northeast 434 499 37,000  Level FlightAware ADS-B (KOWD)
12:09AM 41.6089 -71.9212 28° Northeast 434 499 37,000  Level FlightAware ADS-B (KOWD)
12:09AM 41.7057 -71.8519 29° Northeast 427 491 37,000  Level FlightAware ADS-B (KASH)
12:10AM 41.7645 -71.8096 28° Northeast 435 501 37,000  Level FlightAware ADS-B
12:13AM 42.1063 -71.5621 28° Northeast 437 503 37,000  Level FlightAware ADS-B (KASH)
12:14AM 42.1606 -71.5227 29° Northeast 438 504 37,000  Level FlightAware ADS-B (KASH)
12:14AM 42.2146 -71.4832 28° Northeast 439 505 37,000  Level FlightAware ADS-B (KASH)
12:15AM 42.2667 -71.4450 29° Northeast 425 489 37,000  Level FlightAware ADS-B (KASH)
12:15AM 42.3190 -71.4066 29° Northeast 420 483 37,000  Level FlightAware ADS-B (KASH)
12:16AM 42.3899 -71.3545 29° Northeast 426 490 37,000  Level FlightAware ADS-B (KBOS)
12:16AM 42.4426 -71.3158 29° Northeast 426 490 37,000  Level FlightAware ADS-B (KBOS)
12:17AM 42.5007 -71.2729 29° Northeast 420 483 37,000  Level FlightAware ADS-B (KASH)
12:17AM 42.5518 -71.2351 29° Northeast 423 487 37,000  Level FlightAware ADS-B (KASH)
12:18AM 42.6057 -71.1952 29° Northeast 423 487 37,000  Level FlightAware ADS-B (KASH)
12:18AM 42.6573 -71.1569 29° Northeast 423 487 37,000  Level FlightAware ADS-B (KASH)
12:19AM 42.7215 -71.1091 29° Northeast 431 496 37,000  Level FlightAware ADS-B (KBOS)
12:25AM 43.3191 -70.6589 29° Northeast 436 502 37,000  Level FlightAware ADS-B (KBOS)
12:25AM 43.3732 -70.6176 30° Northeast 429 494 37,000  Level FlightAware ADS-B (KASH)
12:25AM 43.3980 -70.5987 30° Northeast 430 495 37,000  Level FlightAware ADS-B (KASH)
12:26AM 43.4517 -70.5576 29° Northeast 446 513 37,000  Level FlightAware ADS-B (KBOS)
12:27AM 43.5330 -70.4952 30° Northeast 446 513 37,000  Level FlightAware ADS-B (KASH)
12:27AM 43.5885 -70.4525 30° Northeast 443 510 37,000  Level FlightAware ADS-B (KASH)
12:36AM 44.4628 -69.7683 30° Northeast 424 488 37,000  Level Boston Center
12:37AM 44.6434 -69.6111 30° Northeast  Level FlightAware Approximate
12:38AM 44.7565 -69.5205 30° Northeast  Level FlightAware Approximate
12:39AM 44.8694 -69.4296 30° Northeast  Level FlightAware Approximate
12:40AM 44.9823 -69.3383 30° Northeast  Level FlightAware Approximate
12:41AM 45.0951 -69.2466 30° Northeast  Level FlightAware Approximate
12:41AM 45.0183 -69.3205 30° Northeast 428 493 37,000  Level FlightAware ADS-B (KBGR)
12:41AM 45.0668 -69.2809 30° Northeast 429 494 37,000  Level FlightAware ADS-B (KBGR)
12:42AM 45.1220 -69.2358 30° Northeast 429 494 37,000  Level FlightAware ADS-B (KBGR)
12:42AM 45.1747 -69.1927 30° Northeast 429 494 37,000  Level FlightAware ADS-B (KBGR)
12:43AM 45.2278 -69.1491 30° Northeast 429 494 37,000  Level FlightAware ADS-B (KBGR)
12:44AM 45.2867 -69.1006 30° Northeast 430 495 37,000  Level FlightAware ADS-B (KBGR)
01:00AM 46.9242 -67.7025 32° Northeast 441 507 37,000  Level Boston Center
01:01AM 47.1739 -67.4738 31° Northeast  Level FlightAware Approximate
01:01AM 47.0275 -67.6111 31° Northeast 437 503 37,000  Level Boston Center
01:02AM 47.2845 -67.3743 31° Northeast  Level FlightAware Approximate
01:02AM 47.1319 -67.5186 31° Northeast 437 503 37,000  Level Boston Center
01:03AM 47.3947 -67.2738 32° Northeast  Level FlightAware Approximate
01:03AM 47.2356 -67.4236 32° Northeast 438 504 37,000  Level Boston Center
01:13AM 48.3167 -66.3833 33° Northeast 440 506 37,000  Level Moncton Center
01:14AM 48.4133 -66.3001 33° Northeast  Level FlightAware Approximate
01:14AM 48.4000 -66.2833 39° Northeast 440 506 37,000  Level Moncton Center
01:15AM 48.5213 -66.1941 33° Northeast  Level FlightAware Approximate
01:15AM 48.5167 -66.2000 25° Northeast 440 506 37,000  Level Moncton Center
01:16AM 48.6292 -66.0876 33° Northeast  Level FlightAware Approximate
01:16AM 48.6167 -66.1000 33° Northeast 440 506 37,000  Level Moncton Center
01:17AM 48.7370 -65.9806 33° Northeast  Level FlightAware Approximate
01:17AM 48.7333 -65.9667 37° Northeast 450 518 37,000  Level Moncton Center
01:18AM 48.8448 -65.8732 33° Northeast  Level FlightAware Approximate
01:18AM 48.8333 -65.8667 33° Northeast 440 506 37,000  Level Moncton Center
01:19AM 48.9333 -65.7667 33° Northeast 440 506 37,000  Level Moncton Center
01:20AM 49.0167 -65.6500 43° Northeast 440 506 37,000  Level Moncton Center
01:21AM 49.1333 -65.5500 29° Northeast 440 506 37,000 -60 Level Moncton Center
01:22AM 49.2167 -65.4500 38° Northeast 440 506 36,900 -240 Descending Moncton Center
01:26AM 49.6167 -65.0000 36° Northeast 450 518 36,000 -180 Descending Gander Center
01:27AM 49.7000 -64.8833 42° Northeast 450 518 36,000  Level Moncton Center
01:28AM 49.8333 -64.7667 29° Northeast 450 518 36,000  Level Moncton Center
01:29AM 49.9167 -64.6500 42° Northeast 450 518 36,000  Level Moncton Center
01:30AM 50.0333 -64.5333 33° Northeast 450 518 36,000  Level Moncton Center
01:31AM 50.0949 -64.4391 36° Northeast  Level FlightAware Approximate
01:31AM 50.1167 -64.4167 42° Northeast 450 518 36,000  Level Moncton Center
01:32AM 50.2333 -64.3000 33° Northeast 450 518 36,000  Level Moncton Center
01:33AM 50.3167 -64.1833 42° Northeast 450 518 36,000  Level Moncton Center
01:34AM 50.4333 -64.0500 36° Northeast 450 518 36,000  Level Moncton Center
01:35AM 50.5333 -63.9500 32° Northeast 460 529 36,000  Level Moncton Center
01:36AM 50.6333 -63.8167 40° Northeast 460 529 36,000  Level Moncton Center
01:37AM 50.7333 -63.6833 40° Northeast 460 529 36,000  Level Moncton Center
01:38AM 50.8333 -63.5833 32° Northeast 480 552 36,000  Level Moncton Center
01:39AM 50.9500 -63.4667 32° Northeast 460 529 36,000  Level Moncton Center
01:40AM 51.0667 -63.4167 15° North 450 518 36,000  Level Moncton Center
01:41AM 51.1833 -63.3333 24° Northeast 450 518 36,000  Level Moncton Center
01:42AM 51.3000 -63.2500 24° Northeast 460 529 36,000  Level Moncton Center
01:43AM 51.4333 -63.1833 17° North 440 506 36,000  Level Moncton Center
01:44AM 51.5500 -63.1000 24° Northeast 450 518 36,000  Level Moncton Center
01:45AM 51.6500 -63.0500 17° North 450 518 36,000  Level Moncton Center
01:46AM 51.7833 -62.9667 21° North 450 518 36,000  Level Moncton Center
01:47AM 51.9000 -62.9000 19° North 450 518 36,000  Level Moncton Center
01:48AM 52.0000 -62.8167 27° Northeast 450 518 36,000  Level Moncton Center
01:49AM 52.1167 -62.7667 15° North 450 518 36,000  Level Moncton Center
01:50AM 52.2500 -62.6833 21° North 460 529 36,000  Level Moncton Center
01:51AM 52.3667 -62.6167 19° North 460 529 36,000  Level Moncton Center
01:52AM 52.4667 -62.5333 27° Northeast 460 529 36,000  Level Moncton Center
01:53AM 52.6000 -62.4500 21° North 460 529 36,000  Level Moncton Center
01:54AM 52.7167 -62.3833 19° North 460 529 36,000  Level Moncton Center
01:55AM 52.8500 -62.3000 21° North 460 529 36,000  Level Moncton Center
01:56AM 52.9667 -62.2333 19° North 460 529 36,000  Level Moncton Center
01:57AM 53.0833 -62.1500 23° Northeast 470 541 36,000  Level Moncton Center
01:58AM 53.2000 -62.0500 27° Northeast 470 541 36,000  Level Moncton Center
01:59AM 53.3333 -61.9833 17° North 470 541 36,000  Level Moncton Center
02:00AM 53.4500 -61.9000 23° Northeast 470 541 36,000  Level Moncton Center
02:01AM 53.5667 -61.8333 19° North 470 541 36,000  Level Moncton Center
02:02AM 53.7167 -61.7333 22° Northeast 470 541 36,000  Level Gander Center
02:03AM 53.8333 -61.6500 23° Northeast 470 541 36,000  Level Gander Center
02:04AM 53.9333 -61.6000 16° North 470 541 36,000  Level Gander Center
02:05AM 54.0667 -61.5167 20° North 470 541 36,000  Level Gander Center
02:06AM 54.1833 -61.4167 27° Northeast 470 541 36,000  Level Gander Center
02:07AM 54.3167 -61.3333 20° North 470 541 36,000  Level Gander Center
02:08AM 54.4167 -61.2500 26° Northeast 470 541 36,000  Level Gander Center
02:10AM 54.6500 -61.0833 22° Northeast 470 541 36,000  Level Moncton Center
02:11AM 54.7667 -61.0167 18° North 470 541 36,000  Level Moncton Center
02:12AM 54.9000 -60.9167 23° Northeast 460 529 36,000  Level Moncton Center
02:13AM 55.0167 -60.8167 26° Northeast 470 541 36,000  Level Moncton Center
02:14AM 55.1333 -60.7500 18° North 470 541 36,000  Level Moncton Center
02:15AM 55.2500 -60.6500 26° Northeast 480 552 36,000  Level Moncton Center
02:16AM 55.3667 -60.5500 26° Northeast 480 552 36,000  Level Moncton Center
02:17AM 55.5000 -60.4833 16° North 480 552 36,000  Level Moncton Center
02:18AM 55.6333 -60.3833 23° Northeast 480 552 36,000  Level Moncton Center
02:19AM 55.7500 -60.2833 26° Northeast 480 552 36,000  Level Moncton Center
02:20AM 55.8833 -60.2000 19° North 480 552 36,000  Level Moncton Center
02:21AM 56.0000 -60.1000 26° Northeast 480 552 36,000  Level Moncton Center
02:22AM 56.1167 -60.0000 26° Northeast 480 552 36,000  Level Moncton Center
02:23AM 56.2500 -59.9000 23° Northeast 480 552 36,000  Level Moncton Center
02:24AM 56.3667 -59.8167 22° Northeast 490 564 36,000  Level Moncton Center
02:25AM 56.5000 -59.7167 22° Northeast 490 564 36,000  Level Moncton Center
02:26AM 56.6167 -59.6167 25° Northeast 490 564 36,000  Level Moncton Center
02:27AM 56.7333 -59.5333 21° North 490 564 36,000  Level Moncton Center
02:28AM 56.8667 -59.4333 22° Northeast 490 564 36,000  Level Moncton Center
02:29AM 57.0000 -59.3167 25° Northeast 490 564 36,000  Level Moncton Center
02:30AM 57.1000 -59.1833 36° Northeast 500 575 36,000  Level Moncton Center
02:31AM 57.2000 -58.9667 50° Northeast 490 564 36,000  Level Gander Center
02:32AM 57.3000 -58.7500 49° Northeast 500 575 36,000  Level Gander Center
02:33AM 57.3500 -58.5333 67° East 510 587 36,000  Level Gander Center
02:34AM 57.4000 -58.2833 70° East 520 598 36,000  Level Gander Center
02:35AM 57.4667 -58.0333 64° Northeast 530 610 36,000  Level Gander Center
02:36AM 57.5167 -57.7667 71° East 520 598 36,000  Level Gander Center
02:37AM 57.5833 -57.5167 63° Northeast 530 610 36,000  Level Gander Center
02:38AM 57.6333 -57.2667 69° East 520 598 36,000  Level Gander Center
02:39AM 57.6833 -57.0000 71° East 520 598 36,000  Level Gander Center
02:40AM 57.7500 -56.7500 63° Northeast 520 598 36,000  Level Gander Center
02:41AM 57.8000 -56.5000 69° East 520 598 36,000  Level Gander Center
02:42AM 57.8500 -56.2667 68° East 520 598 36,000  Level Gander Center
02:43AM 57.9167 -56.0000 65° Northeast 520 598 36,000  Level Gander Center
02:44AM 57.9500 -55.7500 76° East 520 598 36,000  Level Gander Center
02:45AM 58.0167 -55.4833 65° Northeast 520 598 36,000  Level Gander Center
02:46AM 58.0667 -55.2333 69° East 520 598 36,000  Level Gander Center
02:47AM 58.1000 -54.9667 77° East 520 598 36,000  Level Gander Center
02:48AM 58.1667 -54.7000 65° Northeast 520 598 36,000  Level Gander Center
02:51AM 58.2337 -54.3620 69° East  Level FlightAware Approximate
02:58AM 58.5348 -52.7683 70° East  Level FlightAware Approximate
02:59AM 58.5762 -52.5384 71° East  Level FlightAware Approximate
03:00AM 58.6172 -52.3080 71° East  Level FlightAware Approximate
03:01AM 58.6577 -52.0770 71° East  Level FlightAware Approximate
03:02AM 58.6979 -51.8455 71° East  Level FlightAware Approximate
03:03AM 58.7376 -51.6135 72° East  Level FlightAware Approximate
03:04AM 58.7769 -51.3809 72° East  Level FlightAware Approximate
03:05AM 58.8158 -51.1478 72° East  Level FlightAware Approximate
03:06AM 58.8543 -50.9142 72° East  Level FlightAware Approximate
03:07AM 58.8923 -50.6801 72° East  Level FlightAware Approximate
03:08AM 58.9300 -50.4455 73° East  Level FlightAware Approximate
03:09AM 58.9672 -50.2103 73° East  Level FlightAware Approximate
03:10AM 59.0057 -49.9760 65° Northeast  Level FlightAware Approximate
03:11AM 59.0589 -49.7521 65° Northeast  Level FlightAware Approximate
03:12AM 59.1117 -49.5276 65° Northeast  Level FlightAware Approximate
03:13AM 59.1642 -49.3024 65° Northeast  Level FlightAware Approximate
03:14AM 59.2162 -49.0765 66° East  Level FlightAware Approximate
03:15AM 59.2678 -48.8499 66° East  Level FlightAware Approximate
03:16AM 59.3192 -48.6227 65° Northeast  Level FlightAware Approximate
03:17AM 59.3728 -48.3972 65° Northeast  Level FlightAware Approximate
03:18AM 59.4260 -48.1710 65° Northeast  Level FlightAware Approximate
03:19AM 59.4789 -47.9441 65° Northeast  Level FlightAware Approximate
03:20AM 59.5313 -47.7164 65° Northeast  Level FlightAware Approximate
03:21AM 59.5834 -47.4881 66° East  Level FlightAware Approximate
03:22AM 59.6350 -47.2590 66° East  Level FlightAware Approximate
03:23AM 59.6862 -47.0293 66° East  Level FlightAware Approximate
03:24AM 59.7371 -46.7988 66° East  Level FlightAware Approximate
03:25AM 59.7875 -46.5676 66° East  Level FlightAware Approximate
03:26AM 59.8375 -46.3358 67° East  Level FlightAware Approximate
03:27AM 59.8872 -46.1032 67° East  Level FlightAware Approximate
03:28AM 59.9364 -45.8700 67° East  Level FlightAware Approximate
03:29AM 59.9852 -45.6361 67° East  Level FlightAware Approximate
03:30AM 60.0335 -45.4015 67° East  Level FlightAware Approximate
03:31AM 60.0815 -45.1661 68° East  Level FlightAware Approximate
03:32AM 60.1291 -44.9302 68° East  Level FlightAware Approximate
03:33AM 60.1762 -44.6935 68° East  Level FlightAware Approximate
03:34AM 60.2229 -44.4561 68° East  Level FlightAware Approximate
03:35AM 60.2691 -44.2181 69° East  Level FlightAware Approximate
03:36AM 60.3150 -43.9794 69° East  Level FlightAware Approximate
03:37AM 60.3604 -43.7401 69° East  Level FlightAware Approximate
03:38AM 60.4054 -43.5000 69° East  Level FlightAware Approximate
03:39AM 60.4500 -43.2594 69° East  Level FlightAware Approximate
03:40AM 60.4941 -43.0180 70° East  Level FlightAware Approximate
03:41AM 60.5378 -42.7760 70° East  Level FlightAware Approximate
03:42AM 60.5810 -42.5334 70° East  Level FlightAware Approximate
03:43AM 60.6238 -42.2901 70° East  Level FlightAware Approximate
03:44AM 60.6662 -42.0462 70° East  Level FlightAware Approximate
03:45AM 60.7081 -41.8016 71° East  Level FlightAware Approximate
03:46AM 60.7496 -41.5564 71° East  Level FlightAware Approximate
03:47AM 60.7906 -41.3105 71° East  Level FlightAware Approximate
03:48AM 60.8312 -41.0640 71° East  Level FlightAware Approximate
03:49AM 60.8713 -40.8170 71° East  Level FlightAware Approximate
03:50AM 60.9109 -40.5692 72° East  Level FlightAware Approximate
03:51AM 60.9501 -40.3209 72° East  Level FlightAware Approximate
03:52AM 60.9889 -40.0720 72° East  Level FlightAware Approximate
03:53AM 61.0547 -39.8518 53° Northeast  Level FlightAware Approximate
03:54AM 61.1313 -39.6427 53° Northeast  Level FlightAware Approximate
03:55AM 61.2076 -39.4325 53° Northeast  Level FlightAware Approximate
03:56AM 61.2836 -39.2213 53° Northeast  Level FlightAware Approximate
03:57AM 61.3593 -39.0091 53° Northeast  Level FlightAware Approximate
03:58AM 61.4346 -38.7959 53° Northeast  Level FlightAware Approximate
03:59AM 61.5096 -38.5816 54° Northeast  Level FlightAware Approximate
04:00AM 61.5842 -38.3663 54° Northeast  Level FlightAware Approximate
04:01AM 61.6585 -38.1499 54° Northeast  Level FlightAware Approximate
04:02AM 61.7325 -37.9326 54° Northeast  Level FlightAware Approximate
04:03AM 61.8061 -37.7141 54° Northeast  Level FlightAware Approximate
04:04AM 61.8794 -37.4947 55° Northeast  Level FlightAware Approximate
04:05AM 61.9523 -37.2741 55° Northeast  Level FlightAware Approximate
04:06AM 62.0249 -37.0526 55° Northeast  Level FlightAware Approximate
04:07AM 62.0971 -36.8299 55° Northeast  Level FlightAware Approximate
04:08AM 62.1689 -36.6062 55° Northeast  Level FlightAware Approximate
04:09AM 62.2404 -36.3815 56° Northeast  Level FlightAware Approximate
04:10AM 62.3115 -36.1557 56° Northeast  Level FlightAware Approximate
04:11AM 62.3823 -35.9288 56° Northeast  Level FlightAware Approximate
04:12AM 62.4527 -35.7008 56° Northeast  Level FlightAware Approximate
04:13AM 62.5227 -35.4718 56° Northeast  Level FlightAware Approximate
04:14AM 62.5923 -35.2417 57° Northeast  Level FlightAware Approximate
04:15AM 62.6615 -35.0105 57° Northeast  Level FlightAware Approximate
04:16AM 62.7304 -34.7782 57° Northeast  Level FlightAware Approximate
04:17AM 62.7989 -34.5449 57° Northeast  Level FlightAware Approximate
04:18AM 62.8670 -34.3104 57° Northeast  Level FlightAware Approximate
04:19AM 62.9347 -34.0749 58° Northeast  Level FlightAware Approximate
04:20AM 63.0020 -33.8383 58° Northeast  Level FlightAware Approximate
04:21AM 63.0689 -33.6006 58° Northeast  Level FlightAware Approximate
04:22AM 63.1354 -33.3618 58° Northeast  Level FlightAware Approximate
04:23AM 63.2016 -33.1219 58° Northeast  Level FlightAware Approximate
04:24AM 63.2673 -32.8809 59° Northeast  Level FlightAware Approximate
04:25AM 63.3326 -32.6389 59° Northeast  Level FlightAware Approximate
04:26AM 63.3974 -32.3957 59° Northeast  Level FlightAware Approximate
04:27AM 63.4619 -32.1514 59° Northeast  Level FlightAware Approximate
04:28AM 63.5260 -31.9060 60° Northeast  Level FlightAware Approximate
04:29AM 63.5896 -31.6596 60° Northeast  Level FlightAware Approximate
04:30AM 63.6528 -31.4120 60° Northeast  Level FlightAware Approximate
04:31AM 63.7156 -31.1633 60° Northeast  Level FlightAware Approximate
04:32AM 63.7779 -30.9135 60° Northeast  Level FlightAware Approximate
04:33AM 63.8398 -30.6626 61° Northeast  Level FlightAware Approximate
04:34AM 63.9013 -30.4107 61° Northeast  Level FlightAware Approximate
04:35AM 63.9623 -30.1576 61° Northeast  Level FlightAware Approximate
04:36AM 64.0143 -29.8951 73° East  Level FlightAware Approximate
04:37AM 64.0517 -29.6182 73° East  Level FlightAware Approximate
04:38AM 64.0886 -29.3406 73° East  Level FlightAware Approximate
04:39AM 64.1249 -29.0623 73° East  Level FlightAware Approximate
04:40AM 64.1608 -28.7832 73° East  Level FlightAware Approximate
04:41AM 64.1960 -28.5035 74° East  Level FlightAware Approximate
04:42AM 64.2308 -28.2230 74° East  Level FlightAware Approximate
04:43AM 64.2650 -27.9418 74° East  Level FlightAware Approximate
04:44AM 64.2986 -27.6599 74° East  Level FlightAware Approximate
04:45AM 64.3318 -27.3774 75° East  Level FlightAware Approximate
04:46AM 64.3643 -27.0941 75° East  Level FlightAware Approximate
04:47AM 64.3963 -26.8102 75° East  Level FlightAware Approximate
04:48AM 64.4278 -26.5257 76° East  Level FlightAware Approximate
04:49AM 64.4587 -26.2405 76° East  Level FlightAware Approximate
04:50AM 64.4891 -25.9546 76° East  Level FlightAware Approximate
04:51AM 64.5189 -25.6682 76° East  Level FlightAware Approximate
04:52AM 64.5482 -25.3811 77° East  Level FlightAware Approximate
04:53AM 64.5769 -25.0934 77° East  Level FlightAware Approximate
04:54AM 64.6050 -24.8051 77° East  Level FlightAware Approximate
04:55AM 64.6326 -24.5162 77° East  Level FlightAware Approximate
04:56AM 64.6596 -24.2267 78° East  Level FlightAware Approximate
04:57AM 64.6860 -23.9366 78° East  Level FlightAware Approximate
04:58AM 64.7119 -23.6460 78° East  Level FlightAware Approximate
04:59AM 64.7374 -23.3550 78° East  Level FlightAware Approximate
05:00AM 64.7634 -23.0639 78° East  Level FlightAware Approximate
05:01AM 64.7888 -22.7722 78° East  Level FlightAware Approximate
05:02AM 64.8137 -22.4800 79° East  Level FlightAware Approximate
05:03AM 64.8380 -22.1873 79° East  Level FlightAware Approximate
05:04AM 64.8617 -21.8940 79° East  Level FlightAware Approximate
05:05AM 64.8848 -21.6003 79° East  Level FlightAware Approximate
05:06AM 64.9073 -21.3060 80° East  Level FlightAware Approximate
05:07AM 64.9293 -21.0112 80° East  Level FlightAware Approximate
05:08AM 64.9507 -20.7160 80° East  Level FlightAware Approximate
05:09AM 64.9715 -20.4203 80° East  Level FlightAware Approximate
05:10AM 64.9917 -20.1242 81° East  Level FlightAware Approximate
05:11AM 65.0044 -19.8258 87° East  Level FlightAware Approximate
05:12AM 65.0114 -19.5260 87° East  Level FlightAware Approximate
05:13AM 65.0178 -19.2260 87° East  Level FlightAware Approximate
05:14AM 65.0236 -18.9259 87° East  Level FlightAware Approximate
05:15AM 65.0288 -18.6257 88° East  Level FlightAware Approximate
05:16AM 65.0335 -18.3254 86° East  Level FlightAware Approximate
05:17AM 65.0411 -18.0253 86° East  Level FlightAware Approximate
05:18AM 65.0480 -17.7251 87° East  Level FlightAware Approximate
05:19AM 65.0543 -17.4247 87° East  Level FlightAware Approximate
05:20AM 65.0601 -17.1242 87° East  Level FlightAware Approximate
05:21AM 65.0652 -16.8235 88° East  Level FlightAware Approximate
05:22AM 65.0697 -16.5228 88° East  Level FlightAware Approximate
05:23AM 65.0736 -16.2219 88° East  Level FlightAware Approximate
05:24AM 65.0770 -15.9210 88° East  Level FlightAware Approximate
05:25AM 65.0797 -15.6200 89° East  Level FlightAware Approximate
05:26AM 65.0818 -15.3189 89° East  Level FlightAware Approximate
05:27AM 65.0833 -15.0178 89° East  Level FlightAware Approximate
05:28AM 65.0831 -14.7167 90° East  Level FlightAware Approximate
05:29AM 65.0822 -14.4156 90° East  Level FlightAware Approximate
05:30AM 65.0808 -14.1145 91° East  Level FlightAware Approximate
05:31AM 65.0787 -13.8134 91° East  Level FlightAware Approximate
05:32AM 65.0760 -13.5125 91° East  Level FlightAware Approximate
05:33AM 65.0727 -13.2115 91° East  Level FlightAware Approximate
05:34AM 65.0689 -12.9107 92° East  Level FlightAware Approximate
05:35AM 65.0644 -12.6099 92° East  Level FlightAware Approximate
05:36AM 65.0593 -12.3093 92° East  Level FlightAware Approximate
05:37AM 65.0536 -12.0088 92° East  Level FlightAware Approximate
05:38AM 65.0473 -11.7084 93° East  Level FlightAware Approximate
05:39AM 65.0404 -11.4081 93° East  Level FlightAware Approximate
05:40AM 65.0329 -11.1081 93° East  Level FlightAware Approximate
05:41AM 65.0248 -10.8082 94° East  Level FlightAware Approximate
05:42AM 65.0161 -10.5085 94° East  Level FlightAware Approximate
05:43AM 65.0068 -10.2090 94° East  Level FlightAware Approximate
05:44AM 65.0030 -9.9096 85° East  Level FlightAware Approximate
05:45AM 65.0126 -9.6102 86° East  Level FlightAware Approximate
05:46AM 65.0215 -9.3106 86° East  Level FlightAware Approximate
05:47AM 65.0298 -9.0108 86° East  Level FlightAware Approximate
05:48AM 65.0376 -8.7107 86° East  Level FlightAware Approximate
05:49AM 65.0447 -8.4106 87° East  Level FlightAware Approximate
05:50AM 65.0513 -8.1103 87° East  Level FlightAware Approximate
05:51AM 65.0572 -7.8098 87° East  Level FlightAware Approximate
05:52AM 65.0626 -7.5092 87° East  Level FlightAware Approximate
05:53AM 65.0673 -7.2085 88° East  Level FlightAware Approximate
05:54AM 65.0714 -6.9077 88° East  Level FlightAware Approximate
05:55AM 65.0750 -6.6068 88° East  Level FlightAware Approximate
05:56AM 65.0779 -6.3058 89° East  Level FlightAware Approximate
05:57AM 65.0802 -6.0048 89° East  Level FlightAware Approximate
05:58AM 65.0819 -5.7037 89° East  Level FlightAware Approximate
05:59AM 65.0830 -5.4026 89° East  Level FlightAware Approximate
06:00AM 65.0835 -5.1015 90° East  Level FlightAware Approximate
06:01AM 65.0834 -4.8004 90° East  Level FlightAware Approximate
06:02AM 65.0827 -4.4992 90° East  Level FlightAware Approximate
06:03AM 65.0814 -4.1981 90° East  Level FlightAware Approximate
06:04AM 65.0795 -3.8971 91° East  Level FlightAware Approximate
06:05AM 65.0770 -3.5961 91° East  Level FlightAware Approximate
06:06AM 65.0739 -3.2951 91° East  Level FlightAware Approximate
06:07AM 65.0702 -2.9942 92° East  Level FlightAware Approximate
06:08AM 65.0658 -2.6935 92° East  Level FlightAware Approximate
06:09AM 65.0609 -2.3928 92° East  Level FlightAware Approximate
06:10AM 65.0554 -2.0922 92° East  Level FlightAware Approximate
06:11AM 65.0492 -1.7918 93° East  Level FlightAware Approximate
06:12AM 65.0425 -1.4915 93° East  Level FlightAware Approximate
06:13AM 65.0351 -1.1914 93° East  Level FlightAware Approximate
06:14AM 65.0272 -0.8915 93° East  Level FlightAware Approximate
06:15AM 65.0186 -0.5917 94° East  Level FlightAware Approximate
06:16AM 65.0095 -0.2921 94° East  Level FlightAware Approximate
06:17AM 64.9995 0.0072 99° East  Level FlightAware Approximate
06:18AM 64.9803 0.3037 99° East  Level FlightAware Approximate
06:19AM 64.9604 0.5999 99° East  Level FlightAware Approximate
06:20AM 64.9399 0.8956 99° East  Level FlightAware Approximate
06:21AM 64.9189 1.1909 99° East  Level FlightAware Approximate
06:22AM 64.8973 1.4856 100° East  Level FlightAware Approximate
06:23AM 64.8751 1.7799 100° East  Level FlightAware Approximate
06:24AM 64.8523 2.0737 100° East  Level FlightAware Approximate
06:25AM 64.8289 2.3670 100° East  Level FlightAware Approximate
06:26AM 64.8050 2.6598 101° East  Level FlightAware Approximate
06:27AM 64.7804 2.9521 101° East  Level FlightAware Approximate
06:28AM 64.7553 3.2438 101° East  Level FlightAware Approximate
06:29AM 64.7297 3.5350 102° East  Level FlightAware Approximate
06:30AM 64.7035 3.8256 102° East  Level FlightAware Approximate
06:31AM 64.6767 4.1157 102° East  Level FlightAware Approximate
06:32AM 64.6493 4.4051 102° East  Level FlightAware Approximate
06:33AM 64.6214 4.6940 103° East  Level FlightAware Approximate
06:34AM 64.5928 4.9823 103° East  Level FlightAware Approximate
06:35AM 64.5638 5.2700 103° East  Level FlightAware Approximate
06:36AM 64.5342 5.5570 103° East  Level FlightAware Approximate
06:37AM 64.5040 5.8435 104° East  Level FlightAware Approximate
06:38AM 64.4733 6.1293 104° East  Level FlightAware Approximate
06:39AM 64.4420 6.4144 104° East  Level FlightAware Approximate
06:40AM 64.4102 6.6989 104° East  Level FlightAware Approximate
06:41AM 64.3778 6.9827 105° East  Level FlightAware Approximate
06:42AM 64.3448 7.2659 105° East  Level FlightAware Approximate
06:43AM 64.3114 7.5483 105° East  Level FlightAware Approximate
06:44AM 64.2774 7.8301 105° East  Level FlightAware Approximate
06:45AM 64.2428 8.1112 106° East  Level FlightAware Approximate
06:46AM 64.2077 8.3915 106° East  Level FlightAware Approximate
06:47AM 64.1721 8.6712 106° East  Level FlightAware Approximate
06:48AM 64.1359 8.9501 106° East  Level FlightAware Approximate
06:49AM 64.0992 9.2283 107° East  Level FlightAware Approximate
06:50AM 64.0620 9.5058 107° East  Level FlightAware Approximate
06:51AM 64.0242 9.7825 107° East  Level FlightAware Approximate
06:52AM 63.9860 10.0585 107° East  Level FlightAware Approximate
06:53AM 63.9472 10.3337 108° East  Level FlightAware Approximate
06:54AM 63.9078 10.6081 108° East  Level FlightAware Approximate
06:55AM 63.8680 10.8818 108° East  Level FlightAware Approximate
06:56AM 63.8276 11.1547 108° East  Level FlightAware Approximate
06:57AM 63.7868 11.4268 109° East  Level FlightAware Approximate
06:58AM 63.7454 11.6981 109° East  Level FlightAware Approximate
06:59AM 63.7035 11.9686 109° East  Level FlightAware Approximate
07:00AM 63.6611 12.2383 109° East  Level FlightAware Approximate
07:01AM 63.6182 12.5072 110° East  Level FlightAware Approximate
07:02AM 63.5748 12.7753 110° East  Level FlightAware Approximate
07:03AM 63.5309 13.0425 110° East  Level FlightAware Approximate
07:03AM 61.4187 21.2045 112° Southeast 487 560 37,000  Level FlightAware ADS-B (ESKB)
07:04AM 61.3341 21.6490 112° Southeast 488 562 37,000  Level FlightAware ADS-B (ESKB)
07:06AM 61.2696 21.9816 112° Southeast 492 566 37,000  Level FlightAware ADS-B (ESKB)
07:08AM 61.1609 22.5291 113° Southeast 491 565 37,000  Level FlightAware ADS-B (EFHN)
07:09AM 61.1020 22.8202 113° Southeast 489 563 37,000  Level FlightAware ADS-B (EFHN)
07:10AM 61.0522 23.0629 113° Southeast 491 565 37,000  Level FlightAware ADS-B (EFHN)
07:11AM 61.0030 23.2999 113° Southeast 489 563 37,000  Level FlightAware ADS-B (EFHN)
07:11AM 60.9671 23.4706 113° Southeast 488 562 37,000  Level FlightAware ADS-B (EFHN)
07:12AM 60.9406 23.5964 114° Southeast 488 562 37,000  Level FlightAware ADS-B (EFHN)
07:13AM 60.9121 23.7300 114° Southeast 488 562 37,000  Level FlightAware ADS-B (EFHN)
07:13AM 60.8638 23.9557 114° Southeast 489 563 37,000  Level FlightAware ADS-B (EFHN)
07:14AM 60.8318 24.1037 114° Southeast 489 563 37,000  Level FlightAware ADS-B (EFHN)
07:14AM 60.8031 24.2349 114° Southeast 489 563 37,000  Level FlightAware ADS-B (EFHN)
07:15AM 60.7483 24.4847 114° Southeast 488 562 37,000  Level FlightAware ADS-B (EFHN)
07:16AM 60.7119 24.6488 114° Southeast 487 560 37,000  Level FlightAware ADS-B (EFHN)
07:17AM 60.6743 24.8162 115° Southeast 486 559 37,000  Level FlightAware ADS-B (EFHN)
07:17AM 60.6393 24.9716 115° Southeast 486 559 37,000  Level FlightAware ADS-B (EFHN)
07:18AM 60.6096 25.1023 115° Southeast 486 559 37,000  Level FlightAware ADS-B (EFHN)
07:19AM 60.5752 25.2534 115° Southeast 485 558 37,000  Level FlightAware ADS-B (EFHN)
07:19AM 60.5330 25.4367 115° Southeast 485 558 37,000  Level FlightAware ADS-B (EFHN)
07:20AM 60.4749 25.6867 115° Southeast 487 560 37,000  Level FlightAware ADS-B (EFHN)
07:21AM 60.4388 25.8403 116° Southeast 489 563 37,000  Level FlightAware ADS-B (EFHN)
07:21AM 60.4104 25.9606 116° Southeast 489 563 37,000  Level FlightAware ADS-B (EFHN)
07:22AM 60.3793 26.0914 116° Southeast 486 559 37,000  Level FlightAware ADS-B (EFHN)
07:24AM 60.2745 26.5269 116° Southeast 487 560 37,000  Level FlightAware ADS-B (EFHN)
07:25AM 60.2217 26.7427 116° Southeast 487 560 37,000  Level FlightAware ADS-B (EFHN)
07:25AM 60.1902 26.8773 112° Southeast 486 559 37,000  Level FlightAware ADS-B (EFHN)
07:27AM 60.1416 27.2514 101° East 488 562 37,000  Level FlightAware ADS-B (EFHN)
07:27AM 60.1282 27.3882 101° East 488 562 37,000  Level FlightAware ADS-B (EFHN)
07:28AM 60.1021 27.6467 102° East 488 562 37,000  Level FlightAware ADS-B (EFHN)
07:29AM 60.0836 27.8281 102° East 487 560 37,000  Level FlightAware ADS-B (EFHN)
07:31AM 59.9586 28.1850 125° Southeast  Level Estimated
07:32AM 59.8854 28.3917 125° Southeast  Level Estimated
07:33AM 59.8118 28.5975 125° Southeast  Level Estimated
07:34AM 59.7380 28.8024 126° Southeast  Level Estimated
07:35AM 59.6638 29.0064 126° Southeast  Level Estimated
07:36AM 59.5892 29.2094 126° Southeast  Level Estimated
07:37AM 59.5144 29.4116 126° Southeast  Level Estimated
07:38AM 59.4393 29.6129 126° Southeast  Level Estimated
07:39AM 59.3639 29.8133 126° Southeast  Level Estimated
07:40AM 59.2881 30.0128 127° Southeast  Level Estimated
07:41AM 59.2121 30.2114 127° Southeast  Level Estimated
07:42AM 59.1357 30.4091 127° Southeast  Level Estimated
07:43AM 59.0591 30.6059 127° Southeast  Level Estimated
07:44AM 58.9821 30.8019 127° Southeast  Level Estimated
07:45AM 58.9049 30.9970 127° Southeast  Level Estimated
07:46AM 58.8273 31.1912 128° Southeast  Level Estimated
07:47AM 58.7495 31.3845 128° Southeast  Level Estimated
07:48AM 58.6714 31.5770 128° Southeast  Level Estimated
07:49AM 58.5930 31.7686 128° Southeast  Level Estimated
07:50AM 58.5143 31.9593 128° Southeast  Level Estimated
07:51AM 58.4353 32.1492 128° Southeast  Level Estimated
07:52AM 58.3561 32.3383 129° Southeast  Level Estimated
07:53AM 58.2771 32.5273 128° Southeast  Level FlightAware Approximate
07:54AM 58.1978 32.7154 129° Southeast  Level FlightAware Approximate
07:55AM 58.1183 32.9027 129° Southeast  Level FlightAware Approximate
07:56AM 58.0384 33.0892 129° Southeast  Level FlightAware Approximate
07:57AM 57.9583 33.2748 129° Southeast  Level FlightAware Approximate
07:58AM 57.8779 33.4596 129° Southeast  Level FlightAware Approximate
07:59AM 57.7973 33.6436 129° Southeast  Level FlightAware Approximate
08:00AM 57.7164 33.8268 130° Southeast  Level FlightAware Approximate
08:01AM 57.6352 34.0091 130° Southeast  Level FlightAware Approximate
08:02AM 57.5538 34.1906 130° Southeast  Level FlightAware Approximate
08:03AM 57.4721 34.3714 130° Southeast  Level FlightAware Approximate
08:04AM 57.3940 34.5578 128° Southeast  Level FlightAware Approximate
08:05AM 57.3115 34.7364 131° Southeast  Level FlightAware Approximate
08:06AM 57.2297 34.9156 127° Southeast  Level FlightAware Approximate
08:07AM 57.1568 35.1030 133° Southeast  Level FlightAware Approximate
08:08AM 57.0733 35.2790 131° Southeast  Level FlightAware Approximate
08:09AM 56.9903 35.4553 129° Southeast  Level FlightAware Approximate
08:10AM 56.9104 35.6359 129° Southeast  Level FlightAware Approximate
08:11AM 56.8302 35.8158 129° Southeast  Level FlightAware Approximate
08:12AM 56.7485 35.9930 131° Southeast  Level FlightAware Approximate
08:13AM 56.6658 36.1682 131° Southeast  Level FlightAware Approximate
08:14AM 56.5828 36.3426 131° Southeast  Level FlightAware Approximate
08:15AM 56.4996 36.5163 131° Southeast  Level FlightAware Approximate
08:16AM 56.4179 36.6920 130° Southeast  Level FlightAware Approximate
08:17AM 56.3345 36.8646 132° Southeast  Level FlightAware Approximate
08:18AM 56.2496 37.0344 132° Southeast  Level FlightAware Approximate
08:19AM 56.1620 37.1994 134° Southeast  Level FlightAware Approximate
08:20AM 56.0803 37.3727 132° Southeast  Level FlightAware Approximate
08:21AM 55.9726 37.4146 127° Southeast  Level Estimated
08:22AM 55.9726 37.4146 127° Southeast  Level Estimated
08:23AM 55.9726 37.4146 127° Southeast  Level Estimated
08:24AM 55.9726 37.4146 127° Southeast  Level Estimated
08:25AM 55.9726 37.4146 127° Southeast  Level Estimated
08:26AM 55.9726 37.4146 127° Southeast  Level Estimated
08:27AM 55.9726 37.4146 127° Southeast  Level Estimated
08:28AM 55.9726 37.4146 127° Southeast  Level Estimated
08:29AM 55.9726 37.4146 127° Southeast  Level Estimated
08:30AM 55.9726 37.4146 127° Southeast  Level Estimated
08:31AM 55.9726 37.4146 127° Southeast  Level Estimated
08:32AM 55.9726 37.4146 127° Southeast  Level Estimated
08:33AM 55.9726 37.4146 127° Southeast  Level Estimated
08:34AM 55.9726 37.4146 127° Southeast  Level Estimated
08:35AM 55.9726 37.4146 127° Southeast  Level Estimated
08:36AM 55.9726 37.4146 127° Southeast  Level Estimated
08:37AM 55.9726 37.4146 127° Southeast  Level Estimated
08:38AM 55.9726 37.4146 127° Southeast  Level Estimated
08:39AM 55.9726 37.4146 127° Southeast  Level Estimated
08:40AM 55.9726 37.4146 127° Southeast  Level Estimated
08:41AM 55.9726 37.4146 127° Southeast  Level Estimated
08:42AM 55.9726 37.4146 127° Southeast  Level Estimated
08:43AM 55.9726 37.4146 127° Southeast  Level Estimated
08:44AM 55.9726 37.4146 127° Southeast  Level Estimated
08:45AM 55.9726 37.4146 127° Southeast  Level Estimated
08:46AM 55.9726 37.4146 127° Southeast  Level Estimated
08:47AM 55.9726 37.4146 127° Southeast  Level Estimated